Terminal Aerodrome Forecast
Issued by NWS

Home | Current Version | Previous Version | Text Only | Print | Product List | Glossary On
Versions: 1 2 3 4 5 6 7 8 9 10 11 12 13 14 15 16 17 18 19 20 21 22 23
000
FTUS43 KEAX 181742 CCA
TAFSTJ
TAF COR
KSTJ 181742Z 1818/1918 18008KT P6SM SCT008
     FM190100 16005KT 3SM BR SCT020
     FM190400 16004KT 1SM BR BKN015=

USA.gov is the U.S. government's official web portal to all federal, state and local government web resources and services.